createdAt,value
2019-04-05T00:00:27.469Z,47.81
2019-04-05T00:02:59.560Z,48.34
2019-04-05T00:05:31.312Z,47.65
2019-04-05T00:08:03.126Z,47.94
2019-04-05T00:10:35.073Z,47.74
2019-04-05T00:13:06.677Z,47.76
2019-04-05T00:15:38.545Z,46.92
2019-04-05T00:18:10.101Z,47.22
2019-04-05T00:20:41.860Z,47.52
2019-04-05T00:23:13.981Z,48.32
2019-04-05T00:25:45.706Z,48.31
2019-04-05T00:28:17.662Z,47.94
2019-04-05T00:30:49.244Z,48.31
2019-04-05T00:33:20.598Z,48.04
2019-04-05T00:35:52.371Z,47.86
2019-04-05T00:38:24.148Z,48.13
2019-04-05T00:40:56.015Z,48.20
2019-04-05T00:43:28.952Z,48.68
2019-04-05T00:46:00.647Z,48.30
2019-04-05T00:48:32.290Z,48.42
2019-04-05T00:51:03.881Z,49.10
2019-04-05T00:53:35.667Z,49.27
2019-04-05T00:56:07.299Z,49.33
2019-04-05T00:58:38.971Z,49.29
2019-04-05T01:01:10.701Z,49.15
2019-04-05T01:03:42.504Z,49.46
2019-04-05T01:06:14.636Z,49.47
2019-04-05T01:08:46.167Z,49.70
2019-04-05T01:11:18.020Z,49.54
2019-04-05T01:13:50.367Z,49.54
2019-04-05T01:16:21.969Z,50.37
2019-04-05T01:18:53.796Z,50.12
2019-04-05T01:21:27.991Z,49.60
2019-04-05T01:24:02.461Z,50.23
2019-04-05T01:26:35.402Z,49.79
2019-04-05T01:29:07.129Z,50.06
2019-04-05T01:31:38.544Z,50.31
2019-04-05T01:34:10.569Z,49.86
2019-04-05T01:36:42.087Z,49.78
2019-04-05T01:39:13.966Z,49.77
2019-04-05T01:41:46.502Z,49.95
2019-04-05T01:44:18.602Z,50.00
2019-04-05T01:46:50.245Z,50.43
2019-04-05T01:49:22.030Z,50.26
2019-04-05T01:51:53.972Z,50.70
2019-04-05T01:54:25.739Z,50.75
2019-04-05T01:56:57.416Z,50.94
2019-04-05T01:59:28.901Z,50.95
2019-04-05T02:02:00.480Z,50.89
2019-04-05T02:04:33.198Z,51.09
2019-04-05T02:07:04.877Z,51.01
2019-04-05T02:09:37.330Z,51.06
2019-04-05T02:12:09.401Z,51.12
2019-04-05T02:14:41.111Z,51.11
2019-04-05T02:17:12.831Z,51.15
2019-04-05T02:19:45.703Z,50.79
2019-04-05T02:22:17.297Z,51.19
2019-04-05T02:24:50.815Z,51.58
2019-04-05T02:27:22.414Z,51.45
2019-04-05T02:29:53.902Z,51.35
2019-04-05T02:32:25.731Z,51.34
2019-04-05T02:34:57.201Z,51.77
2019-04-05T02:37:29.102Z,51.75
2019-04-05T02:40:01.141Z,51.85
2019-04-05T02:42:34.882Z,51.81
2019-04-05T02:45:08.188Z,51.96
2019-04-05T02:47:42.370Z,51.93
2019-04-05T02:50:15.304Z,51.40
2019-04-05T02:52:48.279Z,51.60
2019-04-05T02:55:20.458Z,51.42
2019-04-05T02:57:52.463Z,51.73
2019-04-05T03:00:24.474Z,51.77
2019-04-05T03:02:59.126Z,52.14
2019-04-05T03:05:31.526Z,51.79
2019-04-05T03:08:03.153Z,51.78
2019-04-05T03:11:07.890Z,52.15
2019-04-05T03:13:46.690Z,52.24
2019-04-05T03:16:38.605Z,53.04
2019-04-05T03:18:59.329Z,52.76
2019-04-05T03:21:32.324Z,52.58
2019-04-05T03:24:05.284Z,53.01
2019-04-05T03:26:39.517Z,53.44
2019-04-05T03:29:11.092Z,53.84
2019-04-05T03:31:41.553Z,54.16
2019-04-05T03:34:12.864Z,53.78
2019-04-05T03:36:43.396Z,53.72
2019-04-05T03:39:15.459Z,53.64
2019-04-05T03:41:47.211Z,53.95
2019-04-05T03:44:22.842Z,54.02
2019-04-05T03:46:56.851Z,53.80
2019-04-05T03:49:28.153Z,53.96
2019-04-05T03:51:59.432Z,53.77
2019-04-05T03:54:31.398Z,54.41
2019-04-05T03:57:03.145Z,54.56
2019-04-05T03:59:35.466Z,54.46
2019-04-05T04:02:07.457Z,54.38
2019-04-05T04:04:39.138Z,54.63
2019-04-05T04:07:11.232Z,54.63
2019-04-05T04:09:42.970Z,54.45
2019-04-05T04:12:15.671Z,55.08
2019-04-05T04:14:47.229Z,54.65
2019-04-05T04:17:19.164Z,54.94
2019-04-05T04:19:51.992Z,54.58
2019-04-05T04:22:29.939Z,55.04
2019-04-05T04:25:01.688Z,55.15
2019-04-05T04:27:33.780Z,55.46
2019-04-05T04:30:05.786Z,54.51
2019-04-05T04:32:37.656Z,54.85
2019-04-05T04:35:09.294Z,55.22
2019-04-05T04:37:41.274Z,55.28
2019-04-05T04:40:12.826Z,54.42
2019-04-05T04:42:44.548Z,54.97
2019-04-05T04:45:17.343Z,54.47
2019-04-05T04:47:49.201Z,54.72
2019-04-05T04:50:21.526Z,54.65
2019-04-05T04:52:53.675Z,54.41
2019-04-05T04:55:26.700Z,53.73
2019-04-05T04:57:58.425Z,54.06
2019-04-05T05:00:30.068Z,54.07
2019-04-05T05:03:01.661Z,54.01
2019-04-05T05:05:33.133Z,54.05
2019-04-05T05:08:05.419Z,53.50
2019-04-05T05:10:37.189Z,53.87
2019-04-05T05:13:09.030Z,53.06
2019-04-05T05:15:40.918Z,53.08
2019-04-05T05:18:12.827Z,51.86
2019-04-05T05:20:44.561Z,51.76
2019-04-05T05:23:16.501Z,51.78
2019-04-05T05:25:48.214Z,50.84
2019-04-05T05:28:20.208Z,50.37
2019-04-05T05:30:52.403Z,49.71
2019-04-05T05:33:24.150Z,50.43
2019-04-05T05:35:56.134Z,48.05
2019-04-05T05:38:28.128Z,47.80
2019-04-05T05:40:59.727Z,49.45
2019-04-05T05:43:31.400Z,49.06
2019-04-05T05:46:03.113Z,50.01
2019-04-05T05:48:35.725Z,49.25
2019-04-05T05:51:07.234Z,48.50
2019-04-05T05:53:39.344Z,49.60
2019-04-05T05:56:11.699Z,50.04
2019-04-05T05:58:45.933Z,50.14
2019-04-05T06:01:17.475Z,49.05
2019-04-05T06:03:49.321Z,49.98
2019-04-05T06:06:20.872Z,47.75
2019-04-05T06:08:52.456Z,47.59
2019-04-05T06:11:24.109Z,47.08
2019-04-05T06:13:55.895Z,46.94
2019-04-05T06:16:27.586Z,46.20
2019-04-05T06:18:59.336Z,46.74
2019-04-05T06:21:32.430Z,47.01
2019-04-05T06:24:05.342Z,46.15
2019-04-05T06:26:37.081Z,46.15
2019-04-05T06:29:08.567Z,46.81
2019-04-05T06:31:40.128Z,45.64
2019-04-05T06:34:11.817Z,46.59
2019-04-05T06:36:43.424Z,46.19
2019-04-05T06:39:15.047Z,45.17
2019-04-05T06:41:47.816Z,43.75
2019-04-05T06:44:19.317Z,39.88
2019-04-05T06:46:51.188Z,39.56
2019-04-05T06:49:23.632Z,38.29
2019-04-05T06:51:54.961Z,38.68
2019-04-05T06:54:26.367Z,36.64
2019-04-05T06:56:57.876Z,35.11
2019-04-05T06:59:29.477Z,34.36
2019-04-05T07:02:01.310Z,33.06
2019-04-05T07:04:33.072Z,32.66
2019-04-05T07:07:04.768Z,32.94
2019-04-05T07:09:36.257Z,33.59
2019-04-05T07:12:08.162Z,32.24
2019-04-05T07:14:39.904Z,29.79
2019-04-05T07:17:11.522Z,31.36
2019-04-05T07:19:44.265Z,33.31
2019-04-05T07:22:16.023Z,36.84
2019-04-05T07:24:49.547Z,38.59
2019-04-05T07:27:21.180Z,39.57
2019-04-05T07:29:52.895Z,39.81
2019-04-05T07:32:24.684Z,40.92
2019-04-05T07:34:56.276Z,39.97
2019-04-05T07:37:27.856Z,39.34
2019-04-05T07:39:59.421Z,34.99
2019-04-05T07:42:31.086Z,34.27
2019-04-05T07:45:02.785Z,35.39
2019-04-05T07:47:35.478Z,36.48
2019-04-05T07:50:07.472Z,36.48
2019-04-05T07:52:39.194Z,33.92
2019-04-05T07:55:11.000Z,32.54
2019-04-05T07:57:42.612Z,33.25
2019-04-05T08:00:41.197Z,32.40
2019-04-05T08:03:12.862Z,36.70
2019-04-05T08:05:44.564Z,38.33
2019-04-05T08:08:38.049Z,39.20
2019-04-05T08:11:10.352Z,40.83
2019-04-05T08:13:44.668Z,39.95
2019-04-05T08:16:16.477Z,39.92
2019-04-05T08:18:57.544Z,39.58
2019-04-05T08:21:21.648Z,40.86
2019-04-05T08:23:53.591Z,41.48
2019-04-05T08:26:25.243Z,40.76
2019-04-05T08:28:56.871Z,40.79
2019-04-05T08:31:28.594Z,41.82
2019-04-05T08:34:00.324Z,42.07
2019-04-05T08:36:32.777Z,38.72
2019-04-05T08:39:06.695Z,37.48
2019-04-05T08:41:38.411Z,35.83
2019-04-05T08:44:10.140Z,33.84
2019-04-05T08:46:42.047Z,32.71
2019-04-05T08:49:13.720Z,31.44
2019-04-05T08:51:45.412Z,31.78
2019-04-05T08:54:17.480Z,33.01
2019-04-05T08:56:49.149Z,32.44
2019-04-05T08:59:20.783Z,33.43
2019-04-05T09:01:52.219Z,34.93
2019-04-05T09:04:23.879Z,36.70
2019-04-05T09:06:55.410Z,37.30
2019-04-05T09:09:26.827Z,38.12
2019-04-05T09:11:58.572Z,37.09
2019-04-05T09:14:30.106Z,37.62
2019-04-05T09:17:01.845Z,37.34
2019-04-05T09:19:33.455Z,37.30
2019-04-05T09:22:06.170Z,37.44
2019-04-05T09:24:38.227Z,37.54
2019-04-05T09:27:09.815Z,36.82
2019-04-05T09:29:41.595Z,36.91
2019-04-05T09:32:13.152Z,37.34
2019-04-05T09:34:45.384Z,35.06
2019-04-05T09:37:17.165Z,33.47
2019-04-05T09:39:49.315Z,32.82
2019-04-05T09:42:21.011Z,31.70
2019-04-05T09:44:53.988Z,31.15
2019-04-05T09:47:25.395Z,31.41
2019-04-05T09:49:57.530Z,33.14
2019-04-05T09:52:29.193Z,34.30
2019-04-05T09:55:00.521Z,34.40
2019-04-05T09:57:32.521Z,34.87
2019-04-05T10:00:05.334Z,34.74
2019-04-05T10:02:38.127Z,35.67
2019-04-05T10:05:09.846Z,34.85
2019-04-05T10:07:54.109Z,34.64
2019-04-05T10:10:17.062Z,34.69
2019-04-05T10:12:48.772Z,35.16
2019-04-05T10:15:21.863Z,34.95
2019-04-05T10:17:54.088Z,35.16
2019-04-05T10:20:25.722Z,36.30
2019-04-05T10:22:57.508Z,36.00
2019-04-05T10:25:29.152Z,36.18
2019-04-05T10:28:03.374Z,35.61
2019-04-05T10:30:36.274Z,35.57
2019-04-05T10:33:08.135Z,35.54
2019-04-05T10:35:39.635Z,35.38
2019-04-05T10:38:11.252Z,34.76
2019-04-05T10:40:43.037Z,35.63
2019-04-05T10:43:14.932Z,36.52
2019-04-05T10:45:46.482Z,36.27
2019-04-05T10:48:18.355Z,35.84
2019-04-05T10:50:49.978Z,35.90
2019-04-05T10:53:21.407Z,36.63
2019-04-05T10:55:54.044Z,36.86
2019-04-05T10:58:25.688Z,36.93
2019-04-05T11:00:58.606Z,37.52
2019-04-05T11:03:30.578Z,36.26
2019-04-05T11:06:02.316Z,36.47
2019-04-05T11:08:33.887Z,37.02
2019-04-05T11:11:05.420Z,36.41
2019-04-05T11:13:37.104Z,36.63
2019-04-05T11:16:08.574Z,36.44
2019-04-05T11:18:40.235Z,36.39
2019-04-05T11:21:11.807Z,36.22
2019-04-05T11:23:44.038Z,36.64
2019-04-05T11:26:15.605Z,35.99
2019-04-05T11:28:47.488Z,36.21
2019-04-05T11:31:19.346Z,35.64
2019-04-05T11:33:51.343Z,35.06
2019-04-05T11:36:24.246Z,34.42
2019-04-05T11:38:55.927Z,33.13
2019-04-05T11:41:28.536Z,33.55
2019-04-05T11:47:37.496Z,33.33
2019-04-05T11:50:11.973Z,31.70
2019-04-05T11:52:43.654Z,31.51
2019-04-05T11:55:18.171Z,31.70
2019-04-05T11:57:48.381Z,31.83
2019-04-05T12:00:31.850Z,31.94
2019-04-05T12:03:05.631Z,31.47
2019-04-05T12:05:37.249Z,30.62
2019-04-05T12:08:09.070Z,31.19
2019-04-05T12:10:40.718Z,31.63
2019-04-05T12:13:12.282Z,31.98
2019-04-05T12:15:43.847Z,33.09
2019-04-05T12:18:19.175Z,31.68
2019-04-05T12:20:59.006Z,32.14
2019-04-05T12:23:22.264Z,32.63
2019-04-05T12:25:54.618Z,32.52
2019-04-05T12:28:26.372Z,33.05
2019-04-05T12:30:58.040Z,33.12
2019-04-05T12:33:29.466Z,32.81
2019-04-05T12:36:01.141Z,33.02
2019-04-05T12:38:34.001Z,32.30
2019-04-05T12:41:06.176Z,34.04
2019-04-05T12:43:37.719Z,34.83
2019-04-05T12:46:09.488Z,33.68
2019-04-05T12:48:41.161Z,35.45
2019-04-05T12:51:15.450Z,33.08
2019-04-05T12:53:46.710Z,32.56
2019-04-05T12:56:18.472Z,31.75
2019-04-05T12:58:53.682Z,31.77
2019-04-05T13:01:25.657Z,31.56
2019-04-05T13:03:58.814Z,30.92
2019-04-05T13:06:31.569Z,31.72
2019-04-05T13:09:05.602Z,30.45
2019-04-05T13:11:36.798Z,30.04
2019-04-05T13:14:08.374Z,29.30
2019-04-05T13:16:40.266Z,28.91
2019-04-05T13:19:11.778Z,28.41
2019-04-05T13:21:43.737Z,27.53
2019-04-05T13:24:15.356Z,26.75
2019-04-05T13:26:49.065Z,27.87
2019-04-05T13:29:20.734Z,26.88
2019-04-05T13:31:52.469Z,26.68
2019-04-05T13:34:25.880Z,26.37
2019-04-05T13:36:59.336Z,26.31
2019-04-05T13:39:30.859Z,26.74
2019-04-05T13:42:02.659Z,26.46
2019-04-05T13:44:34.976Z,26.32
2019-04-05T13:47:08.470Z,26.36
2019-04-05T13:49:40.650Z,26.03
2019-04-05T13:52:13.321Z,26.00
2019-04-05T13:54:48.300Z,26.49
2019-04-05T13:57:19.713Z,27.29
2019-04-05T13:59:51.511Z,28.49
2019-04-05T14:02:24.633Z,28.88
2019-04-05T14:04:56.432Z,29.72
2019-04-05T14:07:27.829Z,30.16
2019-04-05T14:09:59.747Z,30.32
2019-04-05T14:12:31.492Z,30.75
2019-04-05T14:15:03.143Z,30.92
2019-04-05T14:17:34.717Z,30.63
2019-04-05T14:20:09.110Z,30.92
2019-04-05T14:22:40.586Z,31.26
2019-04-05T14:25:12.852Z,31.20
2019-04-05T14:27:44.311Z,31.07
2019-04-05T14:30:16.157Z,31.25
2019-04-05T14:32:50.854Z,31.65
2019-04-05T14:35:24.448Z,31.34
2019-04-05T14:37:55.257Z,31.73
2019-04-05T14:40:29.373Z,31.56
2019-04-05T14:43:00.785Z,31.71
2019-04-05T14:45:32.427Z,31.42
2019-04-05T14:48:04.549Z,31.42
2019-04-05T14:50:36.305Z,31.96
2019-04-05T14:53:07.854Z,31.55
2019-04-05T14:55:39.614Z,31.86
2019-04-05T14:58:11.267Z,31.45
2019-04-05T15:00:44.447Z,31.62
2019-04-05T15:03:16.166Z,31.80
2019-04-05T15:05:47.658Z,32.36
2019-04-05T15:08:20.665Z,31.76
2019-04-05T15:10:56.546Z,31.84
2019-04-05T15:13:25.967Z,31.59
2019-04-05T15:15:57.687Z,32.04
2019-04-05T15:18:29.398Z,32.35
2019-04-05T15:21:01.363Z,32.22
2019-04-05T15:23:33.965Z,32.30
2019-04-05T15:26:06.169Z,32.21
2019-04-05T15:28:39.086Z,32.16
2019-04-05T15:31:10.787Z,32.32
2019-04-05T15:33:42.697Z,32.40
2019-04-05T15:36:14.450Z,32.07
2019-04-05T15:38:46.340Z,32.14
2019-04-05T15:41:18.045Z,32.28
2019-04-05T15:43:49.916Z,31.95
2019-04-05T15:46:21.502Z,32.26
2019-04-05T15:48:53.133Z,32.24
2019-04-05T15:51:25.142Z,31.98
2019-04-05T15:53:56.945Z,32.46
2019-04-05T15:56:28.543Z,32.46
2019-04-05T15:59:03.643Z,32.44
2019-04-05T16:01:34.251Z,32.44
2019-04-05T16:04:07.864Z,32.21
2019-04-05T16:06:39.575Z,32.53
2019-04-05T16:09:13.199Z,32.74
2019-04-05T16:11:44.924Z,32.83
2019-04-05T16:14:17.637Z,32.76
2019-04-05T16:16:49.532Z,33.12
2019-04-05T16:19:20.994Z,32.88
2019-04-05T16:21:52.746Z,33.00
2019-04-05T16:24:24.198Z,33.14
2019-04-05T16:26:55.954Z,33.41
2019-04-05T16:29:27.597Z,33.68
2019-04-05T16:31:59.212Z,33.73
2019-04-05T16:34:30.792Z,33.50
2019-04-05T16:37:02.469Z,33.57
2019-04-05T16:39:34.193Z,33.87
2019-04-05T16:42:05.865Z,33.86
2019-04-05T16:44:38.834Z,33.87
2019-04-05T16:47:10.499Z,33.97
2019-04-05T16:49:42.196Z,34.26
2019-04-05T16:52:13.812Z,34.60
2019-04-05T16:54:45.665Z,34.80
2019-04-05T16:57:17.479Z,34.85
2019-04-05T16:59:49.322Z,34.93
2019-04-05T17:02:20.927Z,35.18
2019-04-05T17:04:52.547Z,35.43
2019-04-05T17:07:24.283Z,35.64
2019-04-05T17:09:56.131Z,35.73
2019-04-05T17:12:27.738Z,35.94
2019-04-05T17:14:59.322Z,35.90
2019-04-05T17:17:31.040Z,36.01
2019-04-05T17:20:02.716Z,36.12
2019-04-05T17:22:34.706Z,35.85
2019-04-05T17:25:07.377Z,36.33
2019-04-05T17:27:39.172Z,36.79
2019-04-05T17:30:11.359Z,37.22
2019-04-05T17:32:43.293Z,37.40
2019-04-05T17:35:15.116Z,37.56
2019-04-05T17:37:46.741Z,37.91
2019-04-05T17:40:18.459Z,37.99
2019-04-05T17:42:50.102Z,38.19
2019-04-05T17:45:21.904Z,37.76
2019-04-05T17:47:53.736Z,37.56
2019-04-05T17:50:40.797Z,37.73
2019-04-05T17:53:13.518Z,37.89
2019-04-05T17:55:45.792Z,38.10
2019-04-05T17:58:18.990Z,38.26
2019-04-05T18:00:50.923Z,38.32
2019-04-05T18:03:22.527Z,38.31
2019-04-05T18:05:54.040Z,38.59
2019-04-05T18:08:25.451Z,38.64
2019-04-05T18:10:56.953Z,38.37
2019-04-05T18:13:28.696Z,38.37
2019-04-05T18:16:00.426Z,39.46
2019-04-05T18:18:31.830Z,39.45
2019-04-05T18:21:03.887Z,39.62
2019-04-05T18:23:36.184Z,39.82
2019-04-05T18:26:07.651Z,39.70
2019-04-05T18:28:39.071Z,40.14
2019-04-05T18:31:11.030Z,40.26
2019-04-05T18:33:42.911Z,40.14
2019-04-05T18:36:14.485Z,40.47
2019-04-05T18:38:45.940Z,40.53
2019-04-05T18:41:17.333Z,40.56
2019-04-05T18:43:49.516Z,40.96
2019-04-05T18:46:21.272Z,40.95
2019-04-05T18:48:53.138Z,41.29
2019-04-05T18:51:25.680Z,41.32
2019-04-05T18:53:57.244Z,41.42
2019-04-05T18:56:28.837Z,41.68
2019-04-05T18:59:00.266Z,41.67
2019-04-05T19:01:31.991Z,42.06
2019-04-05T19:04:05.477Z,42.21
2019-04-05T19:06:37.185Z,42.23
2019-04-05T19:09:12.042Z,42.44
2019-04-05T19:11:43.767Z,42.53
2019-04-05T19:14:15.554Z,42.63
2019-04-05T19:16:47.246Z,42.56
2019-04-05T19:19:18.931Z,42.94
2019-04-05T19:21:51.174Z,42.85
2019-04-05T19:24:22.590Z,43.07
2019-04-05T19:26:54.495Z,43.07
2019-04-05T19:29:26.215Z,42.96
2019-04-05T19:49:52.137Z,43.27
2019-04-05T19:52:23.909Z,43.27
2019-04-05T19:54:55.526Z,43.20
2019-04-05T19:57:27.193Z,43.34
2019-04-05T19:59:59.077Z,43.13
2019-04-05T20:02:30.678Z,43.13
2019-04-05T20:05:02.877Z,42.97
2019-04-05T20:07:34.618Z,42.82
2019-04-05T20:10:06.831Z,43.15
2019-04-05T20:12:38.432Z,43.03
2019-04-05T20:15:11.038Z,43.08
2019-04-05T20:17:44.724Z,42.63
2019-04-05T20:20:16.502Z,42.89
2019-04-05T20:22:48.359Z,42.74
2019-04-05T20:25:19.766Z,42.56
2019-04-05T20:27:51.686Z,42.70
2019-04-05T20:30:23.393Z,42.92
2019-04-05T20:32:55.159Z,42.95
2019-04-05T20:35:26.741Z,43.02
2019-04-05T20:37:58.654Z,42.99
2019-04-05T20:40:30.623Z,43.21
2019-04-05T20:43:02.419Z,43.25
2019-04-05T20:45:34.128Z,43.21
2019-04-05T20:48:05.911Z,43.07
2019-04-05T20:50:37.653Z,43.08
2019-04-05T20:53:09.302Z,43.18
2019-04-05T20:55:41.054Z,43.28
2019-04-05T20:58:12.840Z,43.25
2019-04-05T21:00:44.368Z,43.52
2019-04-05T21:03:16.231Z,43.52
2019-04-05T21:05:47.828Z,43.62
2019-04-05T21:08:19.621Z,43.77
2019-04-05T21:10:51.020Z,43.79
2019-04-05T21:13:22.754Z,43.71
2019-04-05T21:15:54.409Z,43.94
2019-04-05T21:18:25.880Z,44.15
2019-04-05T21:20:57.617Z,44.49
2019-04-05T21:23:29.501Z,44.59
2019-04-05T21:26:01.527Z,44.80
2019-04-05T21:28:33.075Z,45.05
2019-04-05T21:31:04.735Z,45.08
2019-04-05T21:33:36.284Z,45.32
2019-04-05T21:36:08.239Z,45.49
2019-04-05T21:38:39.920Z,45.82
2019-04-05T21:41:13.183Z,45.92
2019-04-05T21:43:44.886Z,45.91
2019-04-05T21:46:16.943Z,46.04
2019-04-05T21:48:48.827Z,46.02
2019-04-05T21:51:24.705Z,46.10
2019-04-05T21:53:56.432Z,46.33
2019-04-05T21:56:27.836Z,46.39
2019-04-05T21:58:59.671Z,46.28
2019-04-05T22:01:31.265Z,46.43
2019-04-05T22:04:05.201Z,46.51
2019-04-05T22:06:37.113Z,46.88
2019-04-05T22:09:09.338Z,46.87
2019-04-05T22:11:41.216Z,46.80
2019-04-05T22:14:13.217Z,47.00
2019-04-05T22:16:44.846Z,46.95
2019-04-05T22:19:16.691Z,47.11
2019-04-05T22:21:49.228Z,47.17
2019-04-05T22:24:20.893Z,47.02
2019-04-05T22:26:52.370Z,47.05
2019-04-05T22:29:23.835Z,47.27
2019-04-05T22:31:55.547Z,47.42
2019-04-05T22:34:27.324Z,47.43
2019-04-05T22:36:59.196Z,47.36
2019-04-05T22:39:30.993Z,47.56
2019-04-05T22:42:05.704Z,47.55
2019-04-05T22:44:38.981Z,47.62
2019-04-05T22:47:08.180Z,47.71
2019-04-05T22:49:38.371Z,47.82
2019-04-05T22:52:08.577Z,47.72
2019-04-05T22:54:38.966Z,47.70
2019-04-05T22:57:09.413Z,47.93
2019-04-05T22:59:39.741Z,47.95
2019-04-05T23:02:10.143Z,47.62
2019-04-05T23:04:40.605Z,47.68
2019-04-05T23:07:10.906Z,47.78
2019-04-05T23:09:41.119Z,47.60
2019-04-05T23:12:11.326Z,47.96
2019-04-05T23:14:41.608Z,47.79
2019-04-05T23:17:12.036Z,48.16
2019-04-05T23:19:42.324Z,48.05
2019-04-05T23:22:12.515Z,48.09
2019-04-05T23:24:43.114Z,49.29
2019-04-05T23:27:13.444Z,49.24
2019-04-05T23:29:43.669Z,49.07
2019-04-05T23:32:14.190Z,48.71
2019-04-05T23:34:44.501Z,49.15
2019-04-05T23:37:14.797Z,49.78
2019-04-05T23:39:45.391Z,49.67
2019-04-05T23:42:15.779Z,49.32
2019-04-05T23:44:46.327Z,49.38
2019-04-05T23:47:16.788Z,49.32
2019-04-05T23:49:47.169Z,49.57
2019-04-05T23:52:17.554Z,49.68
2019-04-05T23:54:47.707Z,49.95
2019-04-05T23:57:17.948Z,49.54
2019-04-05T23:59:49.301Z,49.94
